createdAt,value
2019-05-17T00:00:27.280Z,8.24
2019-05-17T00:03:32.834Z,8.18
2019-05-17T00:06:37.014Z,8.21
2019-05-17T00:09:40.700Z,8.14
2019-05-17T00:12:46.913Z,8.20
2019-05-17T00:15:49.971Z,8.16
2019-05-17T00:18:53.507Z,8.13
2019-05-17T00:21:57.251Z,8.16
2019-05-17T00:25:00.912Z,8.20
2019-05-17T00:28:07.043Z,8.23
2019-05-17T00:31:10.363Z,8.23
2019-05-17T00:34:16.593Z,8.27
2019-05-17T00:37:21.296Z,8.31
2019-05-17T00:40:26.983Z,8.33
2019-05-17T00:43:30.983Z,8.30
2019-05-17T00:46:37.096Z,8.24
2019-05-17T00:49:39.967Z,8.21
2019-05-17T00:52:43.788Z,8.17
2019-05-17T00:55:47.475Z,8.17
2019-05-17T00:58:51.181Z,8.21
2019-05-17T01:01:56.232Z,8.28
2019-05-17T01:05:00.028Z,8.29
2019-05-17T01:08:03.617Z,8.33
2019-05-17T01:11:07.390Z,8.23
2019-05-17T01:14:11.024Z,8.16
2019-05-17T01:17:16.522Z,8.16
2019-05-17T01:20:20.284Z,7.98
2019-05-17T01:23:23.961Z,7.95
2019-05-17T01:26:27.692Z,7.98
2019-05-17T01:29:31.398Z,7.94
2019-05-17T01:32:37.487Z,7.80
2019-05-17T01:35:46.636Z,7.92
2019-05-17T01:38:50.566Z,7.97
2019-05-17T01:41:54.197Z,8.07
2019-05-17T01:44:57.867Z,8.05
2019-05-17T01:48:01.599Z,8.04
2019-05-17T01:51:07.301Z,7.99
2019-05-17T01:54:10.690Z,8.12
2019-05-17T01:57:16.671Z,8.15
2019-05-17T02:00:20.280Z,8.19
2019-05-17T02:03:24.085Z,8.17
2019-05-17T02:06:27.804Z,8.17
2019-05-17T02:09:37.335Z,8.21
2019-05-17T02:12:37.293Z,8.31
2019-05-17T02:15:40.971Z,8.30
2019-05-17T02:18:46.599Z,8.37
2019-05-17T02:21:50.181Z,8.33
2019-05-17T02:24:53.782Z,8.36
2019-05-17T02:27:57.489Z,8.29
2019-05-17T02:31:03.467Z,8.31
2019-05-17T02:34:07.046Z,8.36
2019-05-17T02:37:13.562Z,8.40
2019-05-17T02:40:16.710Z,8.48
2019-05-17T02:43:23.365Z,8.44
2019-05-17T02:46:25.861Z,8.46
2019-05-17T02:49:29.413Z,8.40
2019-05-17T02:52:33.140Z,8.38
2019-05-17T02:55:37.022Z,8.43
2019-05-17T02:58:43.645Z,8.42
2019-05-17T03:01:46.276Z,8.42
2019-05-17T03:04:52.531Z,8.49
2019-05-17T03:07:55.356Z,8.49
2019-05-17T03:10:58.944Z,8.51
2019-05-17T03:14:03.968Z,8.51
2019-05-17T03:17:08.205Z,8.46
2019-05-17T03:20:13.251Z,8.48
2019-05-17T03:23:17.055Z,8.47
2019-05-17T03:26:23.104Z,8.47
2019-05-17T03:29:26.341Z,8.48
2019-05-17T03:32:36.132Z,8.47
2019-05-17T03:35:38.372Z,8.51
2019-05-17T03:38:43.142Z,8.57
2019-05-17T03:41:47.208Z,8.52
2019-05-17T03:44:53.089Z,8.54
2019-05-17T03:47:56.391Z,8.57
2019-05-17T03:51:02.567Z,8.58
2019-05-17T03:54:05.521Z,8.69
2019-05-17T03:57:09.339Z,8.74
2019-05-17T04:00:13.894Z,8.69
2019-05-17T04:03:17.706Z,8.71
2019-05-17T04:06:23.788Z,8.86
2019-05-17T04:09:26.914Z,8.89
2019-05-17T04:12:32.770Z,8.94
2019-05-17T04:15:35.993Z,8.98
2019-05-17T04:18:43.374Z,9.03
2019-05-17T04:21:45.168Z,8.93
2019-05-17T04:24:48.845Z,8.94
2019-05-17T04:27:53.642Z,9.02
2019-05-17T04:30:57.396Z,9.02
2019-05-17T04:34:03.094Z,9.02
2019-05-17T04:37:06.435Z,9.10
2019-05-17T04:40:13.633Z,9.16
2019-05-17T04:43:15.594Z,9.20
2019-05-17T04:46:19.295Z,9.29
2019-05-17T04:49:24.334Z,9.32
2019-05-17T04:52:28.260Z,9.35
2019-05-17T04:55:34.194Z,9.39
2019-05-17T04:58:37.306Z,9.41
2019-05-17T05:01:43.518Z,9.45
2019-05-17T05:04:46.988Z,9.59
2019-05-17T05:07:53.455Z,9.64
2019-05-17T05:10:56.268Z,9.70
2019-05-17T05:14:02.658Z,9.67
2019-05-17T05:17:05.301Z,9.64
2019-05-17T05:20:09.163Z,9.70
2019-05-17T05:23:13.402Z,9.83
2019-05-17T05:26:17.227Z,9.80
2019-05-17T05:29:21.651Z,9.82
2019-05-17T05:32:25.529Z,9.93
2019-05-17T05:35:29.130Z,9.95
2019-05-17T05:38:32.813Z,10.07
2019-05-17T05:41:36.546Z,10.03
2019-05-17T05:44:41.574Z,10.07
2019-05-17T05:47:45.230Z,10.01
2019-05-17T05:50:49.001Z,9.97
2019-05-17T05:53:52.655Z,10.07
2019-05-17T05:56:56.392Z,10.15
2019-05-17T06:00:02.278Z,10.20
2019-05-17T06:03:05.528Z,10.35
2019-05-17T06:06:09.065Z,10.33
2019-05-17T06:09:12.839Z,10.38
2019-05-17T06:12:23.688Z,10.44
2019-05-17T06:15:22.091Z,10.58
2019-05-17T06:18:25.735Z,10.51
2019-05-17T06:21:31.788Z,10.59
2019-05-17T06:24:34.915Z,10.74
2019-05-17T06:27:38.540Z,10.58
2019-05-17T06:30:43.027Z,10.78
2019-05-17T06:33:46.918Z,10.98
2019-05-17T06:36:52.712Z,11.06
2019-05-17T06:39:55.884Z,11.33
2019-05-17T06:42:59.432Z,11.02
2019-05-17T06:46:03.197Z,10.95
2019-05-17T06:49:06.950Z,10.95
2019-05-17T06:52:11.646Z,11.29
2019-05-17T06:55:15.456Z,11.21
2019-05-17T06:58:18.995Z,11.22
2019-05-17T07:01:22.642Z,11.45
2019-05-17T07:04:26.364Z,11.30
2019-05-17T07:07:30.655Z,11.39
2019-05-17T07:10:34.518Z,11.48
2019-05-17T07:13:39.537Z,11.41
2019-05-17T07:16:43.320Z,11.62
2019-05-17T07:19:46.939Z,11.81
2019-05-17T07:22:50.813Z,11.83
2019-05-17T07:25:54.396Z,11.92
2019-05-17T07:28:59.268Z,12.03
2019-05-17T07:32:03.000Z,12.21
2019-05-17T07:35:06.903Z,12.24
2019-05-17T07:38:10.987Z,12.39
2019-05-17T07:41:14.663Z,12.57
2019-05-17T07:44:20.399Z,12.66
2019-05-17T07:47:23.494Z,12.73
2019-05-17T07:50:29.200Z,12.56
2019-05-17T07:53:32.469Z,12.72
2019-05-17T07:56:36.054Z,12.66
2019-05-17T07:59:39.857Z,12.74
2019-05-17T08:02:43.602Z,13.06
2019-05-17T08:05:47.127Z,12.84
2019-05-17T08:08:50.709Z,12.72
2019-05-17T08:11:54.294Z,12.64
2019-05-17T08:14:59.861Z,12.75
2019-05-17T08:18:03.075Z,12.57
2019-05-17T08:21:06.639Z,13.06
2019-05-17T08:24:10.423Z,13.18
2019-05-17T08:27:14.230Z,13.31
2019-05-17T08:30:20.662Z,13.79
2019-05-17T08:33:24.101Z,14.11
2019-05-17T08:36:29.846Z,14.29
2019-05-17T08:39:32.938Z,13.91
2019-05-17T08:42:36.480Z,14.39
2019-05-17T08:45:40.889Z,15.00
2019-05-17T08:48:44.673Z,15.28
2019-05-17T08:51:50.026Z,16.04
2019-05-17T08:54:53.562Z,17.05
2019-05-17T08:57:57.205Z,18.32
2019-05-17T09:01:00.810Z,19.37
2019-05-17T09:04:04.514Z,18.90
2019-05-17T09:07:09.475Z,18.09
2019-05-17T09:10:13.368Z,16.73
2019-05-17T09:13:19.375Z,17.31
2019-05-17T09:16:22.382Z,17.06
2019-05-17T09:19:25.993Z,17.05
2019-05-17T09:22:30.534Z,17.02
2019-05-17T09:25:34.355Z,16.32
2019-05-17T09:28:39.386Z,16.76
2019-05-17T09:31:43.167Z,17.31
2019-05-17T09:34:46.783Z,17.51
2019-05-17T09:37:50.429Z,18.10
2019-05-17T09:40:54.067Z,17.71
2019-05-17T09:44:09.619Z,18.10
2019-05-17T09:47:03.079Z,17.98
2019-05-17T09:50:09.684Z,19.22
2019-05-17T09:53:12.951Z,20.06
2019-05-17T09:56:16.548Z,19.95
2019-05-17T09:59:20.480Z,17.78
2019-05-17T10:02:24.175Z,17.32
2019-05-17T10:05:27.823Z,17.29
2019-05-17T10:08:31.510Z,17.15
2019-05-17T10:11:35.372Z,17.06
2019-05-17T10:14:43.716Z,17.46
2019-05-17T10:17:49.379Z,17.79
2019-05-17T10:20:56.586Z,18.28
2019-05-17T10:24:00.468Z,18.34
2019-05-17T10:27:04.330Z,18.36
2019-05-17T10:30:10.512Z,18.82
2019-05-17T10:33:14.678Z,19.15
2019-05-17T10:36:20.185Z,19.23
2019-05-17T10:39:24.079Z,19.95
2019-05-17T10:42:30.520Z,20.05
2019-05-17T10:45:33.619Z,21.03
2019-05-17T10:48:37.299Z,21.14
2019-05-17T10:51:41.012Z,20.00
2019-05-17T10:54:44.796Z,19.60
2019-05-17T10:57:50.003Z,20.12
2019-05-17T11:00:54.185Z,22.85
2019-05-17T11:03:59.583Z,24.33
2019-05-17T11:07:04.354Z,24.76
2019-05-17T11:10:11.796Z,24.75
2019-05-17T11:13:14.223Z,24.01
2019-05-17T11:16:17.984Z,23.22
2019-05-17T11:19:21.736Z,24.08
2019-05-17T11:22:25.370Z,23.89
2019-05-17T11:25:29.581Z,24.95
2019-05-17T11:28:33.263Z,25.87
2019-05-17T11:31:37.003Z,26.00
2019-05-17T11:34:40.648Z,24.09
2019-05-17T11:37:44.545Z,23.37
2019-05-17T11:40:49.993Z,22.93
2019-05-17T11:43:53.974Z,22.27
2019-05-17T11:46:57.934Z,21.19
2019-05-17T11:50:01.676Z,20.77
2019-05-17T11:53:05.368Z,19.81
2019-05-17T11:56:09.212Z,19.95
2019-05-17T11:59:12.872Z,20.34
2019-05-17T12:02:16.665Z,20.42
2019-05-17T12:05:20.334Z,20.71
2019-05-17T12:08:24.022Z,20.37
2019-05-17T12:11:27.899Z,20.92
2019-05-17T12:14:31.632Z,21.96
2019-05-17T12:17:35.372Z,25.14
2019-05-17T12:20:39.085Z,22.91
2019-05-17T12:23:42.808Z,20.96
2019-05-17T12:26:47.566Z,20.00
2019-05-17T12:29:51.297Z,19.31
2019-05-17T12:32:55.158Z,18.64
2019-05-17T12:35:59.005Z,18.24
2019-05-17T12:39:03.205Z,18.20
2019-05-17T12:42:07.207Z,18.17
2019-05-17T12:45:11.210Z,18.42
2019-05-17T12:48:14.919Z,19.69
2019-05-17T12:51:18.786Z,21.01
2019-05-17T12:54:22.450Z,21.66
2019-05-17T12:57:26.327Z,19.88
2019-05-17T13:00:29.972Z,19.51
2019-05-17T13:03:33.727Z,18.69
2019-05-17T13:06:37.346Z,18.29
2019-05-17T13:09:40.992Z,18.65
2019-05-17T13:12:44.642Z,18.92
2019-05-17T13:15:48.301Z,18.99
2019-05-17T13:18:51.948Z,18.96
2019-05-17T13:21:55.566Z,19.06
2019-05-17T13:24:59.190Z,19.42
2019-05-17T13:28:02.875Z,19.68
2019-05-17T13:31:06.479Z,20.04
2019-05-17T13:34:10.125Z,20.14
2019-05-17T13:37:13.833Z,20.56
2019-05-17T13:40:18.112Z,22.63
2019-05-17T13:43:21.798Z,21.66
2019-05-17T13:46:33.007Z,20.93
2019-05-17T13:49:30.860Z,19.34
2019-05-17T13:52:34.470Z,19.09
2019-05-17T13:55:38.120Z,18.92
2019-05-17T13:58:41.726Z,18.74
2019-05-17T14:01:46.284Z,19.02
2019-05-17T14:04:49.954Z,19.42
2019-05-17T14:07:53.541Z,21.03
2019-05-17T14:10:57.247Z,20.19
2019-05-17T14:14:00.931Z,19.54
2019-05-17T14:17:04.641Z,18.63
2019-05-17T14:20:08.634Z,18.20
2019-05-17T14:23:12.359Z,18.25
2019-05-17T14:26:16.005Z,18.61
2019-05-17T14:29:19.669Z,18.61
2019-05-17T14:32:23.339Z,18.56
2019-05-17T14:35:28.691Z,18.72
2019-05-17T14:38:32.365Z,18.82
2019-05-17T14:41:35.976Z,19.10
2019-05-17T14:44:39.643Z,19.16
2019-05-17T14:47:43.326Z,19.14
2019-05-17T14:50:46.956Z,19.05
2019-05-17T14:53:50.919Z,19.21
2019-05-17T14:56:54.709Z,18.83
2019-05-17T14:59:58.356Z,18.51
2019-05-17T15:03:02.123Z,18.89
2019-05-17T15:06:05.791Z,18.97
2019-05-17T15:09:11.660Z,19.23
2019-05-17T15:12:27.175Z,18.93
2019-05-17T15:15:25.615Z,18.70
2019-05-17T15:18:25.778Z,18.74
2019-05-17T15:21:29.454Z,19.00
2019-05-17T15:24:33.078Z,19.19
2019-05-17T15:27:36.739Z,19.31
2019-05-17T15:30:40.427Z,19.52
2019-05-17T15:33:44.077Z,19.52
2019-05-17T15:36:47.705Z,19.20
2019-05-17T15:39:51.385Z,19.04
2019-05-17T15:42:54.996Z,18.74
2019-05-17T15:45:58.733Z,18.79
2019-05-17T15:49:02.362Z,18.92
2019-05-17T15:52:06.146Z,19.05
2019-05-17T15:55:09.841Z,19.08
2019-05-17T15:58:13.500Z,18.85
2019-05-17T16:01:17.174Z,18.69
2019-05-17T16:04:20.817Z,18.94
2019-05-17T16:07:24.502Z,19.08
2019-05-17T16:10:28.167Z,18.99
2019-05-17T16:13:33.853Z,18.95
2019-05-17T16:16:37.327Z,18.77
2019-05-17T16:19:40.929Z,18.74
2019-05-17T16:22:44.562Z,18.62
2019-05-17T16:25:48.201Z,18.70
2019-05-17T16:28:51.818Z,18.51
2019-05-17T16:31:55.525Z,18.43
2019-05-17T16:34:59.192Z,18.54
2019-05-17T16:38:02.830Z,18.65
2019-05-17T16:41:06.550Z,18.75
2019-05-17T16:44:10.209Z,18.69
2019-05-17T16:47:13.828Z,18.71
2019-05-17T16:50:17.845Z,18.58
2019-05-17T16:53:21.576Z,18.60
2019-05-17T16:56:25.354Z,18.57
2019-05-17T16:59:29.044Z,18.55
2019-05-17T17:02:32.710Z,18.52
2019-05-17T17:05:36.655Z,18.35
2019-05-17T17:08:41.804Z,18.09
2019-05-17T17:11:45.859Z,17.99
2019-05-17T17:14:49.445Z,17.90
2019-05-17T17:17:53.161Z,17.79
2019-05-17T17:20:56.801Z,17.76
2019-05-17T17:24:00.511Z,17.77
2019-05-17T17:27:04.395Z,17.73
2019-05-17T17:30:10.211Z,17.71
2019-05-17T17:33:13.999Z,17.64
2019-05-17T17:36:19.524Z,17.62
2019-05-17T17:39:23.051Z,17.62
2019-05-17T17:42:26.704Z,17.63
2019-05-17T17:45:30.521Z,17.64
2019-05-17T17:48:34.184Z,17.54
2019-05-17T17:51:37.821Z,17.52
2019-05-17T17:54:41.452Z,17.49
2019-05-17T17:57:45.237Z,17.43
2019-05-17T18:00:48.971Z,17.44
2019-05-17T18:03:52.632Z,17.44
2019-05-17T18:06:56.279Z,17.38
2019-05-17T18:09:59.961Z,17.34
2019-05-17T18:13:03.602Z,17.35
2019-05-17T18:16:07.250Z,17.32
2019-05-17T18:19:10.930Z,17.19
2019-05-17T18:22:14.635Z,17.12
2019-05-17T18:25:18.671Z,17.00
2019-05-17T18:28:22.406Z,16.99
2019-05-17T18:31:26.035Z,16.91
2019-05-17T18:34:29.746Z,16.86
2019-05-17T18:37:39.391Z,16.87
2019-05-17T18:40:49.859Z,16.74
2019-05-17T18:44:27.037Z,16.61
2019-05-17T18:47:24.081Z,16.51
2019-05-17T18:50:28.273Z,16.44
2019-05-17T18:53:32.011Z,16.31
2019-05-17T18:56:35.664Z,16.19
2019-05-17T18:59:39.308Z,16.09
2019-05-17T19:02:42.932Z,16.08
2019-05-17T19:05:46.485Z,16.03
2019-05-17T19:08:50.041Z,15.97
2019-05-17T19:11:53.603Z,15.94
2019-05-17T19:15:00.499Z,15.80
2019-05-17T19:18:02.600Z,15.65
2019-05-17T19:21:13.475Z,15.59
2019-05-17T19:24:17.042Z,15.48
2019-05-17T19:27:20.637Z,15.52
2019-05-17T19:30:24.335Z,15.48
2019-05-17T19:33:28.074Z,15.43
2019-05-17T19:36:31.694Z,15.36
2019-05-17T19:39:35.258Z,15.28
2019-05-17T19:42:38.811Z,15.28
2019-05-17T19:45:43.203Z,15.03
2019-05-17T19:48:47.387Z,14.85
2019-05-17T19:51:51.041Z,14.76
2019-05-17T19:54:54.616Z,14.70
2019-05-17T19:57:58.595Z,14.68
2019-05-17T20:01:03.995Z,14.69
2019-05-17T20:04:08.078Z,14.68
2019-05-17T20:07:12.530Z,14.69
2019-05-17T20:10:17.077Z,14.62
2019-05-17T20:13:20.627Z,14.64
2019-05-17T20:16:24.203Z,14.51
2019-05-17T20:19:27.838Z,14.39
2019-05-17T20:22:33.014Z,14.37
2019-05-17T20:25:36.611Z,14.27
2019-05-17T20:28:43.160Z,14.25
2019-05-17T20:31:46.817Z,14.31
2019-05-17T20:34:50.432Z,14.26
2019-05-17T20:37:53.954Z,14.21
2019-05-17T20:40:57.534Z,14.11
2019-05-17T20:44:04.662Z,14.03
2019-05-17T20:47:08.249Z,13.96
2019-05-17T20:50:13.714Z,13.86
2019-05-17T20:53:19.507Z,13.89
2019-05-17T20:56:32.317Z,13.77
2019-05-17T20:59:28.585Z,13.70
2019-05-17T21:02:36.415Z,13.67
2019-05-17T21:05:37.460Z,13.63
2019-05-17T21:08:45.871Z,13.61
2019-05-17T21:11:46.330Z,13.60
2019-05-17T21:14:49.981Z,13.57
2019-05-17T21:17:53.516Z,13.47
2019-05-17T21:24:14.067Z,13.21
2019-05-17T21:27:19.210Z,13.12
2019-05-17T21:30:22.901Z,13.09
2019-05-17T21:33:26.579Z,13.05
2019-05-17T21:36:30.224Z,12.97
2019-05-17T21:39:33.827Z,12.93
2019-05-17T21:42:38.874Z,12.87
2019-05-17T21:45:42.481Z,12.97
2019-05-17T21:48:47.497Z,12.88
2019-05-17T21:51:51.048Z,12.80
2019-05-17T21:54:54.647Z,12.84
2019-05-17T21:57:59.873Z,12.77
2019-05-17T22:01:06.736Z,12.70
2019-05-17T22:04:10.312Z,12.74
2019-05-17T22:07:13.938Z,12.74
2019-05-17T22:10:23.656Z,12.68
2019-05-17T22:13:28.389Z,12.69
2019-05-17T22:16:34.075Z,12.73
2019-05-17T22:19:38.768Z,12.61
2019-05-17T22:22:43.941Z,12.52
2019-05-17T22:25:47.533Z,12.46
2019-05-17T22:28:51.204Z,12.47
2019-05-17T22:31:54.832Z,12.45
2019-05-17T22:34:58.595Z,12.38
2019-05-17T22:38:02.281Z,12.33
2019-05-17T22:41:06.246Z,12.34
2019-05-17T22:44:15.291Z,12.25
2019-05-17T22:47:18.905Z,12.21
2019-05-17T22:50:22.538Z,12.25
2019-05-17T22:53:28.562Z,12.16
2019-05-17T22:56:32.136Z,12.21
2019-05-17T22:59:37.621Z,12.19
2019-05-17T23:02:43.312Z,12.18
2019-05-17T23:05:46.570Z,12.16
2019-05-17T23:08:52.538Z,12.08
2019-05-17T23:11:55.425Z,12.05
2019-05-17T23:14:58.991Z,12.04
2019-05-17T23:18:02.565Z,12.08
2019-05-17T23:21:06.275Z,12.04
2019-05-17T23:24:09.869Z,11.98
2019-05-17T23:27:13.537Z,11.88
2019-05-17T23:30:17.192Z,11.84
2019-05-17T23:33:20.742Z,11.84
2019-05-17T23:36:24.339Z,11.77
2019-05-17T23:39:27.890Z,11.79
2019-05-17T23:42:31.516Z,11.82
2019-05-17T23:45:35.080Z,11.79
2019-05-17T23:48:38.621Z,11.77
2019-05-17T23:51:42.233Z,11.69
2019-05-17T23:54:45.922Z,11.70
2019-05-17T23:57:49.456Z,11.68
